createdAt,value
2018-12-25T00:00:12.047Z,7.23
2018-12-25T00:03:16.768Z,6.47
2018-12-25T00:06:21.500Z,5.63
2018-12-25T00:09:25.938Z,6.97
2018-12-25T00:12:30.649Z,7.87
2018-12-25T00:15:35.385Z,5.97
2018-12-25T00:18:39.874Z,6.43
2018-12-25T00:21:44.313Z,5.77
2018-12-25T00:24:49.063Z,6.90
2018-12-25T00:27:53.520Z,6.73
2018-12-25T00:30:58.221Z,6.87
2018-12-25T00:34:02.955Z,6.23
2018-12-25T00:37:07.380Z,6.57
2018-12-25T00:40:11.819Z,5.93
2018-12-25T00:43:16.269Z,7.03
2018-12-25T00:46:20.958Z,5.77
2018-12-25T00:49:25.678Z,5.10
2018-12-25T00:52:30.107Z,5.87
2018-12-25T00:55:34.544Z,8.03
2018-12-25T00:58:39.264Z,7.97
2018-12-25T01:01:43.995Z,7.00
2018-12-25T01:04:48.727Z,7.27
2018-12-25T01:07:53.390Z,6.93
2018-12-25T01:10:58.085Z,6.43
2018-12-25T01:14:02.811Z,7.03
2018-12-25T01:17:07.547Z,7.03
2018-12-25T01:20:11.986Z,6.30
2018-12-25T01:23:16.430Z,6.60
2018-12-25T01:26:21.232Z,6.37
2018-12-25T01:29:25.953Z,7.83
2018-12-25T01:32:30.691Z,7.27
2018-12-25T01:35:35.416Z,7.80
2018-12-25T01:38:40.151Z,10.00
2018-12-25T01:41:44.587Z,8.90
2018-12-25T01:44:49.034Z,7.63
2018-12-25T01:47:53.732Z,8.07
2018-12-25T01:50:58.167Z,9.20
2018-12-25T01:54:02.616Z,8.27
2018-12-25T01:57:07.427Z,8.60
2018-12-25T02:00:12.129Z,8.57
2018-12-25T02:03:16.559Z,9.63
2018-12-25T02:06:20.997Z,9.73
2018-12-25T02:09:25.435Z,9.07
2018-12-25T02:12:29.861Z,8.23
2018-12-25T02:15:34.301Z,8.80
2018-12-25T02:18:38.826Z,8.57
2018-12-25T02:21:43.507Z,8.37
2018-12-25T02:24:48.237Z,10.70
2018-12-25T02:27:52.968Z,10.30
2018-12-25T02:30:57.403Z,8.63
2018-12-25T02:34:02.125Z,10.83
2018-12-25T02:37:06.567Z,9.17
2018-12-25T02:40:11.280Z,7.93
2018-12-25T02:43:15.705Z,7.97
2018-12-25T02:46:20.149Z,8.50
2018-12-25T02:49:24.867Z,8.40
2018-12-25T02:52:29.310Z,7.43
2018-12-25T02:55:33.763Z,7.60
2018-12-25T02:58:38.193Z,9.17
2018-12-25T03:01:42.628Z,9.83
2018-12-25T03:04:47.060Z,9.77
2018-12-25T03:07:51.501Z,9.50
2018-12-25T03:10:56.232Z,8.63
2018-12-25T03:14:00.678Z,8.40
2018-12-25T03:17:05.102Z,10.83
2018-12-25T03:20:09.810Z,9.17
2018-12-25T03:23:14.242Z,9.23
2018-12-25T03:26:18.963Z,8.67
2018-12-25T03:29:23.693Z,8.73
2018-12-25T03:32:28.140Z,9.23
2018-12-25T03:35:32.851Z,7.77
2018-12-25T03:38:37.292Z,8.87
2018-12-25T03:41:42.007Z,9.83
2018-12-25T03:44:46.428Z,9.90
2018-12-25T03:47:50.869Z,10.27
2018-12-25T03:50:55.301Z,9.63
2018-12-25T03:53:59.753Z,9.80
2018-12-25T03:57:04.198Z,8.53
2018-12-25T04:00:08.804Z,9.73
2018-12-25T04:03:13.589Z,7.83
2018-12-25T04:06:18.012Z,9.03
2018-12-25T04:09:22.449Z,9.63
2018-12-25T04:12:27.167Z,8.97
2018-12-25T04:15:31.895Z,10.63
2018-12-25T04:18:36.623Z,8.97
2018-12-25T04:21:41.054Z,8.57
2018-12-25T04:24:45.499Z,13.33
2018-12-25T04:27:50.201Z,9.07
2018-12-25T04:30:54.930Z,9.90
2018-12-25T04:33:59.371Z,11.10
2018-12-25T04:37:03.808Z,10.33
2018-12-25T04:40:08.251Z,10.23
2018-12-25T04:43:12.687Z,10.27
2018-12-25T04:46:17.114Z,10.07
2018-12-25T04:49:21.557Z,9.97
2018-12-25T04:52:25.988Z,10.27
2018-12-25T04:55:30.433Z,10.20
2018-12-25T04:58:35.150Z,10.07
2018-12-25T05:01:39.880Z,10.10
2018-12-25T05:04:44.611Z,11.23
2018-12-25T05:07:49.051Z,10.70
2018-12-25T05:10:53.767Z,9.70
2018-12-25T05:13:58.208Z,10.07
2018-12-25T05:17:02.644Z,10.70
2018-12-25T05:20:07.089Z,11.63
2018-12-25T05:23:11.524Z,9.13
2018-12-25T05:26:16.027Z,14.37
2018-12-25T05:29:20.471Z,10.27
2018-12-25T05:32:24.907Z,10.63
2018-12-25T05:35:29.665Z,9.70
2018-12-25T05:38:34.107Z,10.43
2018-12-25T05:41:38.554Z,9.97
2018-12-25T05:44:43.510Z,11.93
2018-12-25T05:47:48.285Z,12.50
2018-12-25T05:50:52.735Z,12.20
2018-12-25T05:53:57.437Z,10.10
2018-12-25T05:57:01.882Z,11.10
2018-12-25T06:00:08.353Z,11.50
2018-12-25T06:03:12.738Z,10.50
2018-12-25T06:06:17.485Z,11.27
2018-12-25T06:09:22.001Z,10.20
2018-12-25T06:12:26.451Z,10.87
2018-12-25T06:15:30.895Z,12.47
2018-12-25T06:18:35.588Z,11.37
2018-12-25T06:21:40.323Z,12.40
2018-12-25T06:24:44.765Z,9.87
2018-12-25T06:27:49.204Z,10.37
2018-12-25T06:30:53.901Z,10.57
2018-12-25T06:33:58.629Z,12.37
2018-12-25T06:37:03.083Z,10.73
2018-12-25T06:40:08.203Z,11.00
2018-12-25T06:43:12.754Z,11.03
2018-12-25T06:46:17.454Z,15.47
2018-12-25T06:49:22.192Z,14.07
2018-12-25T06:52:26.639Z,12.37
2018-12-25T06:55:31.088Z,11.43
2018-12-25T06:58:35.525Z,11.17
2018-12-25T07:01:39.978Z,10.77
2018-12-25T07:04:44.714Z,11.80
2018-12-25T07:07:49.167Z,12.67
2018-12-25T07:10:53.621Z,12.00
2018-12-25T07:13:58.389Z,11.13
2018-12-25T07:17:02.847Z,10.50
2018-12-25T07:20:07.437Z,13.00
2018-12-25T07:23:11.875Z,9.97
2018-12-25T07:26:16.330Z,12.07
2018-12-25T07:29:20.922Z,11.50
2018-12-25T07:32:25.653Z,12.97
2018-12-25T07:35:30.377Z,11.07
2018-12-25T07:38:34.827Z,11.83
2018-12-25T07:41:39.279Z,12.27
2018-12-25T07:44:43.716Z,11.87
2018-12-25T07:47:48.172Z,10.90
2018-12-25T07:50:52.624Z,12.23
2018-12-25T07:53:57.431Z,11.37
2018-12-25T07:57:01.876Z,11.93
2018-12-25T08:00:08.093Z,11.93
2018-12-25T08:03:12.544Z,12.83
2018-12-25T08:06:16.992Z,14.13
2018-12-25T08:09:21.699Z,16.50
2018-12-25T08:12:26.170Z,12.50
2018-12-25T08:15:30.613Z,16.67
2018-12-25T08:18:35.073Z,14.93
2018-12-25T08:21:39.519Z,12.80
2018-12-25T08:24:43.959Z,13.57
2018-12-25T08:27:48.485Z,12.63
2018-12-25T08:30:52.920Z,17.53
2018-12-25T08:33:57.378Z,14.07
2018-12-25T08:37:01.814Z,11.40
2018-12-25T08:40:06.258Z,13.07
2018-12-25T08:43:10.700Z,15.67
2018-12-25T08:46:15.402Z,17.13
2018-12-25T08:49:20.137Z,17.10
2018-12-25T08:52:24.578Z,17.87
2018-12-25T08:55:29.023Z,18.47
2018-12-25T08:58:33.465Z,18.27
2018-12-25T09:01:37.894Z,18.33
2018-12-25T09:04:42.672Z,15.83
2018-12-25T09:07:47.114Z,17.17
2018-12-25T09:10:51.809Z,15.17
2018-12-25T09:13:56.259Z,16.23
2018-12-25T09:17:00.697Z,18.20
2018-12-25T09:20:06.521Z,20.20
2018-12-25T09:23:10.972Z,24.23
2018-12-25T09:26:15.413Z,19.40
2018-12-25T09:29:20.192Z,20.73
2018-12-25T09:32:24.631Z,19.83
2018-12-25T09:35:29.346Z,21.50
2018-12-25T09:38:33.798Z,22.13
2018-12-25T09:41:38.237Z,20.40
2018-12-25T09:44:42.929Z,22.47
2018-12-25T09:47:47.364Z,18.53
2018-12-25T09:50:51.808Z,20.37
2018-12-25T09:53:56.500Z,19.70
2018-12-25T09:57:00.939Z,24.07
2018-12-25T10:00:08.230Z,22.67
2018-12-25T10:03:13.477Z,23.87
2018-12-25T10:06:18.188Z,21.47
2018-12-25T10:09:22.927Z,22.43
2018-12-25T10:12:27.656Z,24.17
2018-12-25T10:15:32.114Z,21.73
2018-12-25T10:18:36.907Z,22.70
2018-12-25T10:21:41.636Z,22.07
2018-12-25T10:24:46.077Z,19.63
2018-12-25T10:27:50.512Z,19.57
2018-12-25T10:30:54.963Z,23.23
2018-12-25T10:33:59.397Z,21.53
2018-12-25T10:37:03.840Z,21.27
2018-12-25T10:40:08.756Z,21.27
2018-12-25T10:43:13.525Z,22.33
2018-12-25T10:46:17.962Z,21.53
2018-12-25T10:49:22.412Z,22.90
2018-12-25T10:52:26.851Z,22.90
2018-12-25T10:55:31.628Z,22.87
2018-12-25T10:58:36.064Z,21.07
2018-12-25T11:01:40.517Z,22.37
2018-12-25T11:04:44.951Z,20.47
2018-12-25T11:07:49.727Z,18.63
2018-12-25T11:10:54.460Z,19.00
2018-12-25T11:13:58.904Z,22.20
2018-12-25T11:17:03.350Z,17.33
2018-12-25T11:20:11.582Z,18.40
2018-12-25T11:23:14.204Z,16.67
2018-12-25T11:26:18.651Z,21.53
2018-12-25T11:29:23.096Z,21.13
2018-12-25T11:32:27.535Z,19.33
2018-12-25T11:35:31.983Z,18.63
2018-12-25T11:38:36.414Z,18.47
2018-12-25T11:41:41.161Z,22.20
2018-12-25T11:44:45.594Z,19.07
2018-12-25T11:47:50.042Z,19.47
2018-12-25T11:50:54.734Z,19.63
2018-12-25T11:53:59.174Z,18.03
2018-12-25T11:57:03.609Z,18.53
2018-12-25T12:00:09.922Z,18.70
2018-12-25T12:03:14.414Z,18.13
2018-12-25T12:06:18.861Z,19.57
2018-12-25T12:09:23.299Z,20.00
2018-12-25T12:12:28.051Z,20.47
2018-12-25T12:15:32.496Z,19.70
2018-12-25T12:18:36.942Z,19.30
2018-12-25T12:21:41.382Z,21.13
2018-12-25T12:24:46.158Z,17.50
2018-12-25T12:27:51.198Z,19.23
2018-12-25T12:30:55.632Z,16.93
2018-12-25T12:34:00.075Z,20.07
2018-12-25T12:37:04.522Z,18.53
2018-12-25T12:40:09.031Z,17.53
2018-12-25T12:43:13.719Z,17.37
2018-12-25T12:46:18.152Z,18.37
2018-12-25T12:49:22.596Z,19.37
2018-12-25T12:52:27.118Z,18.77
2018-12-25T12:55:31.825Z,22.77
2018-12-25T12:58:36.270Z,20.40
2018-12-25T13:01:40.705Z,18.47
2018-12-25T13:04:45.153Z,17.27
2018-12-25T13:07:49.603Z,15.87
2018-12-25T13:10:54.045Z,16.77
2018-12-25T13:13:58.776Z,17.80
2018-12-25T13:17:03.513Z,18.70
2018-12-25T13:20:08.235Z,15.67
2018-12-25T13:23:12.681Z,14.73
2018-12-25T13:26:17.190Z,15.50
2018-12-25T13:29:21.915Z,15.30
2018-12-25T13:32:26.352Z,12.73
2018-12-25T13:35:30.816Z,10.80
2018-12-25T13:38:35.261Z,12.30
2018-12-25T13:41:39.696Z,12.90
2018-12-25T13:44:44.143Z,11.07
2018-12-25T13:47:48.585Z,11.00
2018-12-25T13:50:53.034Z,12.60
2018-12-25T13:53:57.479Z,12.83
2018-12-25T13:57:01.917Z,11.90
2018-12-25T14:00:07.107Z,12.30
2018-12-25T14:03:11.607Z,11.03
2018-12-25T14:06:16.048Z,11.00
2018-12-25T14:09:20.562Z,10.03
2018-12-25T14:12:24.988Z,9.83
2018-12-25T14:15:29.435Z,12.13
2018-12-25T14:18:33.872Z,11.63
2018-12-25T14:21:38.319Z,13.50
2018-12-25T14:24:42.761Z,13.77
2018-12-25T14:27:47.194Z,13.53
2018-12-25T14:30:51.646Z,13.47
2018-12-25T14:33:56.352Z,12.30
2018-12-25T14:37:00.773Z,11.77
2018-12-25T14:40:06.424Z,11.63
2018-12-25T14:43:10.867Z,14.50
2018-12-25T14:46:15.578Z,15.37
2018-12-25T14:49:20.018Z,12.63
2018-12-25T14:52:24.452Z,16.57
2018-12-25T14:55:28.893Z,12.23
2018-12-25T14:58:34.192Z,11.73
2018-12-25T15:01:38.931Z,12.70
2018-12-25T15:04:43.662Z,14.60
2018-12-25T15:07:48.099Z,15.03
2018-12-25T15:10:52.544Z,13.03
2018-12-25T15:13:57.238Z,15.47
2018-12-25T15:17:01.675Z,14.87
2018-12-25T15:20:07.262Z,14.47
2018-12-25T15:23:11.692Z,13.03
2018-12-25T15:26:16.467Z,14.13
2018-12-25T15:29:20.902Z,12.53
2018-12-25T15:32:25.620Z,14.27
2018-12-25T15:35:30.451Z,13.83
2018-12-25T15:38:34.890Z,16.97
2018-12-25T15:41:39.328Z,16.60
2018-12-25T15:44:44.027Z,21.87
2018-12-25T15:47:48.462Z,13.93
2018-12-25T15:50:53.189Z,12.90
2018-12-25T15:53:57.625Z,17.47
2018-12-25T15:57:02.544Z,15.10
2018-12-25T16:00:11.694Z,14.43
2018-12-25T16:03:16.139Z,16.33
2018-12-25T16:06:20.828Z,14.77
2018-12-25T16:09:25.291Z,15.43
2018-12-25T16:12:29.694Z,13.20
2018-12-25T16:15:34.142Z,12.13
2018-12-25T16:18:38.583Z,16.73
2018-12-25T16:21:43.023Z,14.10
2018-12-25T16:24:47.780Z,13.73
2018-12-25T16:27:52.229Z,15.90
2018-12-25T16:30:56.669Z,15.23
2018-12-25T16:34:01.104Z,12.70
2018-12-25T16:37:05.534Z,16.13
2018-12-25T16:40:10.308Z,15.00
2018-12-25T16:43:14.767Z,15.03
2018-12-25T16:46:19.198Z,15.90
2018-12-25T16:49:23.892Z,14.50
2018-12-25T16:52:28.335Z,14.40
2018-12-25T16:55:32.769Z,12.77
2018-12-25T16:58:37.214Z,14.77
2018-12-25T17:01:41.999Z,12.47
2018-12-25T17:04:46.718Z,19.40
2018-12-25T17:07:51.166Z,13.20
2018-12-25T17:10:55.614Z,20.37
2018-12-25T17:14:00.046Z,12.97
2018-12-25T17:17:04.496Z,16.63
2018-12-25T17:20:09.496Z,19.67
2018-12-25T17:23:13.941Z,16.13
2018-12-25T17:26:18.386Z,14.40
2018-12-25T17:29:22.815Z,14.43
2018-12-25T17:32:27.562Z,15.47
2018-12-25T17:35:31.997Z,15.20
2018-12-25T17:38:36.437Z,14.00
2018-12-25T17:41:40.870Z,12.90
2018-12-25T17:44:45.306Z,12.67
2018-12-25T17:47:49.756Z,14.53
2018-12-25T17:50:54.190Z,13.03
2018-12-25T17:53:58.631Z,16.87
2018-12-25T17:57:03.084Z,12.57
2018-12-25T18:00:08.699Z,15.33
2018-12-25T18:03:13.144Z,15.10
2018-12-25T18:06:17.855Z,14.80
2018-12-25T18:09:22.301Z,14.70
2018-12-25T18:12:26.751Z,18.43
2018-12-25T18:15:31.200Z,15.60
2018-12-25T18:18:35.660Z,13.27
2018-12-25T18:21:40.385Z,18.03
2018-12-25T18:24:44.824Z,17.83
2018-12-25T18:27:49.278Z,15.83
2018-12-25T18:30:53.724Z,16.97
2018-12-25T18:33:58.165Z,14.23
2018-12-25T18:37:02.608Z,14.97
2018-12-25T18:40:08.195Z,15.67
2018-12-25T18:43:12.990Z,14.57
2018-12-25T18:46:17.538Z,12.83
2018-12-25T18:49:21.970Z,15.03
2018-12-25T18:52:26.673Z,14.53
2018-12-25T18:55:31.113Z,13.53
2018-12-25T18:58:35.569Z,15.63
2018-12-25T19:01:40.008Z,14.90
2018-12-25T19:04:44.768Z,15.17
2018-12-25T19:07:49.228Z,14.00
2018-12-25T19:10:53.662Z,17.60
2018-12-25T19:13:58.120Z,19.90
2018-12-25T19:17:02.982Z,15.07
2018-12-25T19:20:09.269Z,16.57
2018-12-25T19:23:13.980Z,16.13
2018-12-25T19:26:18.706Z,16.03
2018-12-25T19:29:23.163Z,13.67
2018-12-25T19:32:27.605Z,16.60
2018-12-25T19:35:32.065Z,14.60
2018-12-25T19:38:36.509Z,17.77
2018-12-25T19:41:40.959Z,15.97
2018-12-25T19:44:45.761Z,17.27
2018-12-25T19:47:50.207Z,19.27
2018-12-25T19:50:54.767Z,16.27
2018-12-25T19:53:59.198Z,18.17
2018-12-25T19:57:03.643Z,17.00
2018-12-25T20:00:12.070Z,18.17
2018-12-25T20:03:17.214Z,18.90
2018-12-25T20:06:54.808Z,19.60
2018-12-25T20:10:15.950Z,17.93
2018-12-25T20:13:45.990Z,19.47
2018-12-25T20:17:44.039Z,24.03
2018-12-25T20:21:04.682Z,24.53
2018-12-25T20:24:44.187Z,24.23
2018-12-25T20:28:18.755Z,24.37
2018-12-25T20:31:57.433Z,24.73
2018-12-25T20:35:50.585Z,24.37
2018-12-25T20:39:23.765Z,25.03
2018-12-25T20:43:06.529Z,25.83
2018-12-25T20:46:39.629Z,24.17
2018-12-25T20:50:08.247Z,26.57
2018-12-25T20:53:51.960Z,27.43
2018-12-25T20:57:18.768Z,26.13
2018-12-25T21:01:06.976Z,27.93
2018-12-25T21:04:50.143Z,30.60
2018-12-25T21:08:21.940Z,32.10
2018-12-25T21:11:54.645Z,30.47
2018-12-25T21:15:36.838Z,29.47
2018-12-25T21:19:28.168Z,28.90
2018-12-25T21:23:27.242Z,27.03
2018-12-25T21:27:26.469Z,34.10
2018-12-25T21:30:31.541Z,25.97
2018-12-25T21:33:35.985Z,27.93
2018-12-25T21:36:43.729Z,26.87
2018-12-25T21:39:48.585Z,26.50
2018-12-25T21:42:53.099Z,32.63
2018-12-25T21:45:57.613Z,28.47
2018-12-25T21:49:02.226Z,27.40
2018-12-25T21:52:06.909Z,28.17
2018-12-25T21:55:18.675Z,27.80
2018-12-25T21:58:17.763Z,27.17
2018-12-25T22:01:22.205Z,28.43
2018-12-25T22:04:26.809Z,27.57
2018-12-25T22:07:31.253Z,26.43
2018-12-25T22:10:35.677Z,24.27
2018-12-25T22:13:40.115Z,26.17
2018-12-25T22:16:44.553Z,26.37
2018-12-25T22:19:48.997Z,25.67
2018-12-25T22:22:53.792Z,23.50
2018-12-25T22:25:58.381Z,25.03
2018-12-25T22:29:02.836Z,24.37
2018-12-25T22:32:07.283Z,25.40
2018-12-25T22:35:11.713Z,26.10
2018-12-25T22:38:16.155Z,27.13
2018-12-25T22:41:20.839Z,26.93
2018-12-25T22:44:25.281Z,31.37
2018-12-25T22:47:29.722Z,28.83
2018-12-25T22:50:34.185Z,27.17
2018-12-25T22:53:39.047Z,27.13
2018-12-25T22:56:43.475Z,26.47
2018-12-25T22:59:47.910Z,25.77
2018-12-25T23:02:52.354Z,24.17
2018-12-25T23:05:56.781Z,23.57
2018-12-25T23:09:01.585Z,27.93
2018-12-25T23:12:06.021Z,26.70
2018-12-25T23:15:10.463Z,27.70
2018-12-25T23:18:14.921Z,28.60
2018-12-25T23:21:19.359Z,26.77
2018-12-25T23:24:23.808Z,26.13
2018-12-25T23:27:28.246Z,24.47
2018-12-25T23:30:32.692Z,25.23
2018-12-25T23:33:37.477Z,24.77
2018-12-25T23:36:41.905Z,27.00
2018-12-25T23:39:46.629Z,25.23
2018-12-25T23:42:51.378Z,24.90
2018-12-25T23:45:55.802Z,27.50
2018-12-25T23:49:00.240Z,25.77
2018-12-25T23:52:04.745Z,27.80
2018-12-25T23:55:09.195Z,23.60
2018-12-25T23:58:13.655Z,26.47
